»·PEaware :: N796SP KCMA-KEMT

N796SP :: KCMA-KEMT

FLIGHT INFORMATION

Flight Status: Arrived
Operator: Privately registered:
United States
More flights under this callsign
Pilot: Hochu C. (26461)
Aircraft: CESSNA 150 COMMUTER AEROBAT
(C150)
More flights by this aircraft type
Origin: KCMA Camarillo
United States
Destination: KEMT El Monte
United States
More flights between these airports :: More routes between these airports
Route:
File this flight plan on PilotEdge
Remarks: +CW /
Altitude:
(Current/Filed)
2,500ft
Speed:
(Current/Filed)
90kts
Departed: 02-Dec-19 03:16 PM
Arrived: 02-Dec-19 04:11 PM
Distance/Time
Traveled:
53nm/0:54
Distance/Time
To Go:
Arrived

Flight Plot

Page will automatically refresh every two minutes.

Flight plan parsing failed; only flown route is shown


Map Options




Map Legend


Flown Route
Filed Route
Departure Airport
Arrival Airport
Navaid (VOR, NDB)
Fix

Horizontal Profiles

Position Reports

Time Latitude Longitude Heading Altitude Ground
Speed
02-Dec-19 15:06 34.210350 -119.076464 90 78ft 0kts
02-Dec-19 15:07 34.210350 -119.076464 90 78ft 0kts
02-Dec-19 15:08 34.210350 -119.076464 90 78ft 0kts
02-Dec-19 15:09 34.210859 -119.077514 278 78ft 6kts
02-Dec-19 15:10 34.210888 -119.079248 271 77ft 10kts
02-Dec-19 15:11 34.210912 -119.084452 268 73ft 0kts
02-Dec-19 15:12 34.212394 -119.084619 0 74ft 9kts
02-Dec-19 15:13 34.212857 -119.084623 358 75ft 0kts
02-Dec-19 15:14 34.212941 -119.084626 358 75ft 4kts
02-Dec-19 15:15 34.213745 -119.095919 268 311ft 72kts
02-Dec-19 15:16 34.201753 -119.107040 151 1226ft 75kts
02-Dec-19 15:17 34.200071 -119.082602 85 2028ft 78kts
02-Dec-19 15:18 34.202435 -119.056294 79 2443ft 86kts
02-Dec-19 15:19 34.207746 -119.027364 78 2527ft 90kts
02-Dec-19 15:20 34.211717 -118.997368 87 2446ft 90kts
02-Dec-19 15:21 34.209334 -118.967092 100 2449ft 90kts
02-Dec-19 15:22 34.203827 -118.937407 102 2469ft 90kts
02-Dec-19 15:23 34.203111 -118.906990 92 2487ft 90kts
02-Dec-19 15:24 34.201319 -118.876718 93 2505ft 90kts
02-Dec-19 15:25 34.201317 -118.846428 85 2675ft 86kts
02-Dec-19 15:26 34.204011 -118.816598 87 2832ft 90kts
02-Dec-19 15:27 34.204744 -118.786096 92 2891ft 91kts
02-Dec-19 15:28 34.205286 -118.755653 80 2930ft 90kts
02-Dec-19 15:29 34.209287 -118.725374 82 2850ft 91kts
02-Dec-19 15:30 34.212454 -118.694883 79 2772ft 91kts
02-Dec-19 15:31 34.216802 -118.664674 80 2697ft 91kts
02-Dec-19 15:32 34.223199 -118.635297 73 2464ft 91kts
02-Dec-19 15:33 34.232790 -118.607071 79 2192ft 91kts
02-Dec-19 15:34 34.238800 -118.579659 81 2072ft 75kts
02-Dec-19 15:35 34.241868 -118.554233 83 2049ft 76kts
02-Dec-19 15:36 34.242425 -118.529083 90 1833ft 75kts
02-Dec-19 15:37 34.243450 -118.505709 80 1378ft 69kts
02-Dec-19 15:38 34.234901 -118.492443 175 1245ft 60kts
02-Dec-19 15:39 34.217957 -118.491127 177 938ft 62kts
02-Dec-19 15:40 34.200905 -118.489646 173 1182ft 71kts
02-Dec-19 15:41 34.181115 -118.484881 176 1984ft 76kts
02-Dec-19 15:42 34.160232 -118.481683 169 2401ft 82kts
02-Dec-19 15:43 34.138262 -118.474709 161 2423ft 81kts
02-Dec-19 15:44 34.116789 -118.465977 155 2306ft 78kts
02-Dec-19 15:45 34.098098 -118.454101 157 1935ft 77kts
02-Dec-19 15:46 34.077717 -118.450346 198 1448ft 74kts
02-Dec-19 15:47 34.058114 -118.454632 156 960ft 75kts
02-Dec-19 15:48 34.041660 -118.442072 144 548ft 65kts
02-Dec-19 15:49 34.026273 -118.436723 226 402ft 59kts
02-Dec-19 15:50 34.016257 -118.450754 223 141ft 53kts
02-Dec-19 15:51 34.004402 -118.449756 74 961ft 76kts
02-Dec-19 15:52 34.013237 -118.429310 87 1902ft 73kts
02-Dec-19 15:53 34.015162 -118.403181 76 2136ft 82kts
02-Dec-19 15:54 34.018941 -118.376250 87 2163ft 82kts
02-Dec-19 15:55 34.020674 -118.350064 83 2188ft 82kts
02-Dec-19 15:56 34.024130 -118.325022 83 2201ft 83kts
02-Dec-19 15:57 34.026723 -118.297738 85 2256ft 81kts
02-Dec-19 15:58 34.029120 -118.270233 82 2266ft 82kts
02-Dec-19 15:59 34.032654 -118.243004 80 2283ft 82kts
02-Dec-19 16:00 34.034714 -118.215602 84 2296ft 82kts
02-Dec-19 16:01 34.039505 -118.188587 73 2311ft 81kts
02-Dec-19 16:03 34.042028 -118.161567 98 1908ft 82kts
02-Dec-19 16:04 34.042541 -118.134330 82 1470ft 82kts
02-Dec-19 16:05 34.051971 -118.110755 68 1270ft 78kts
02-Dec-19 16:06 34.062688 -118.089290 57 1167ft 74kts
02-Dec-19 16:07 34.073714 -118.068277 28 1198ft 76kts
02-Dec-19 16:08 34.092735 -118.059336 18 1284ft 73kts
02-Dec-19 16:09 34.108867 -118.046559 97 913ft 81kts
02-Dec-19 16:10 34.099412 -118.027762 178 591ft 69kts
02-Dec-19 16:11 34.085262 -118.035275 205 284ft 31kts
02-Dec-19 16:12 34.083004 -118.035923 111 283ft 6kts

Navigation Log

Ident Type
Flight plan parsing failed, navigation log unavailable